METAR Data
IDs: Format: Raw Decoded Include TAF

Data at: 1432 UTC 10 Aug 2022

KBUR 101353Z 25003KT 10SM CLR 24/12 A3000 RMK AO2 SLP145 T02390117
KBUR 101253Z 31003KT 10SM CLR 24/10 A2998 RMK AO2 SLP135 T02390100
KBUR 101153Z 00000KT 10SM CLR 24/11 A2997 RMK AO2 SLP134 T02440106 10272 20239 57001
KBUR 101053Z 00000KT 10SM CLR 24/13 A2997 RMK AO2 SLP134 T02440128
KBUR 100953Z VRB03KT 10SM CLR 25/13 A2997 RMK AO2 SLP134 T02500133
KBUR 100853Z 12008KT 10SM CLR 25/13 A2998 RMK AO2 SLP135 T02500128 58002
KBUR 100753Z 14006KT 10SM CLR 26/12 A2998 RMK AO2 SLP135 T02610117 403670244
KBUR 100653Z 12004KT 10SM CLR 26/11 A2998 RMK AO2 SLP138 T02610106
KBUR 100553Z 14005KT 10SM CLR 27/08 A2998 RMK AO2 SLP137 T02720078 10356 20267 53024
KBUR 100453Z 12008KT 10SM CLR 28/11 A2996 RMK AO2 SLP129 T02780106
KBUR 100353Z 12008KT 10SM CLR 29/11 A2993 RMK AO2 SLP118 T02890111
KBUR 100253Z 16006KT 10SM CLR 29/09 A2991 RMK AO2 SLP113 T02940094 53007
KBUR 100153Z 17007KT 10SM CLR 32/08 A2989 RMK AO2 SLP107 T03220083
KBUR 100053Z 19010KT 10SM CLR 34/07 A2988 RMK AO2 SLP103 T03390072
KBUR 092353Z 19008KT 10SM CLR 35/05 A2989 RMK AO2 SLP105 T03500050 10367 20322 56012
KBUR 092253Z 16008KT 10SM CLR 35/06 A2990 RMK AO2 SLP108 T03500061
KBUR 092153Z 17011KT 10SM CLR 36/07 A2991 RMK AO2 SLP111 T03610067
KBUR 092053Z 15008KT 10SM CLR 36/10 A2993 RMK AO2 SLP117 T03560100 58011
KBUR 091953Z 20008KT 10SM CLR 34/12 A2994 RMK AO2 SLP123 T03440117
KBUR 091853Z 16006KT 10SM CLR 34/11 A2996 RMK AO2 SLP128 T03390106
KBUR 091753Z 14007G15KT 110V180 10SM CLR 32/12 A2996 RMK AO2 SLP129 T03220122 10328 20244 50002
KBUR 091653Z 15008KT 130V230 10SM CLR 31/11 A2996 RMK AO2 SLP129 T03060106
KBUR 091553Z VRB03KT 10SM CLR 29/11 A2996 RMK AO2 SLP130 T02890111
KBUR 091453Z 00000KT 10SM CLR 27/15 A2995 RMK AO2 SLP128 T02720150 52011
KBUR 091353Z 00000KT 10SM CLR 25/15 A2994 RMK AO2 SLP125 T02500150
KBUR 091253Z 00000KT 10SM CLR 25/14 A2993 RMK AO2 SLP119 T02500144
KBUR 091153Z 00000KT 10SM CLR 25/14 A2992 RMK AO2 SLP115 T02500144 10267 20244 55000
KBUR 091053Z 00000KT 10SM CLR 24/14 A2992 RMK AO2 SLP115 T02440144
KBUR 090953Z 14004KT 10SM CLR 24/14 A2992 RMK AO2 SLP116 T02440144
KBUR 090853Z 12005KT 10SM CLR 25/14 A2992 RMK AO2 SLP116 T02500144 58006
KBUR 090753Z 11006KT 10SM CLR 26/14 A2994 RMK AO2 SLP122 T02560144 403500228
KBUR 090653Z 14005KT 10SM CLR 27/14 A2994 RMK AO2 SLP123 T02670144
KBUR 090553Z 16003KT 10SM CLR 27/14 A2994 RMK AO2 SLP123 T02670144 10328 20267 50015
KBUR 090453Z 13008KT 10SM CLR 27/14 A2994 RMK AO2 SLP125 T02720139
KBUR 090353Z 13008KT 10SM CLR 28/15 A2992 RMK AO2 SLP116 T02830150
KBUR 090253Z 18007KT 10SM CLR 29/14 A2989 RMK AO2 SLP108 T02890144 53008